(°C)
(°C)
-6°
-6°
-6°
-6°
-5°
-5°
-5°
ΝΔ
ΝΝΔ
ΝΔ
ΝΔ
ΝΔ
ΝΔ
ΝΔ
(χλμ / ω)
21-40
20-40
23-43
22-40
20-38
20-37
20-35
(χιλιοστά)
0
0
0
0
0
0
0
(%)
0
0
14
0
0
1
1

Ανύψωση ήλιου

/ -53.4°
sun-icon
UV 0
08:35
16:05
Φθίνων αμφίκυρτος (φάση σελήνης) (348°)
07:10
15:21

METAR για 55.6°Β 37.27°Α (UUWW)

Χρόνος Συνθήκες Θερμοκρασία/
Σημείο δρόσου
Άνεμος Ορατότητα Καιρός Νέφη Πίεση Αλλαγή Ανεπεξέργαστο
LIFR 0°C / -1°C 180º 8kt 7000m - Overcast 400ft 995 Temporary: Visibility 1000. Snow . Mist . Overcast 200ft. . Runway 24: Wet snow, 1-10% contamination with 5mm, friction coefficient 0.42. UUWW 022200Z 18004MPS 7000 OVC004 00/M01 Q0995 R24/510542 TEMPO 1000 SN BR OVC002
LIFR 0°C / -1°C 200º 12kt 7000m - Overcast 300ft 995 Temporary: Visibility 0500. freezing Fog . freezing Drizzle . Overcast 200ft. . Runway 19: Wet snow, 1-10% contamination with 5mm, friction coefficient 0.42. UUWW 022130Z 20006MPS 7000 OVC003 M00/M01 Q0995 R19/510542 TEMPO 0500 FZFG FZDZ OVC002
LIFR -1°C / -2°C 190º 12kt 7000m - Overcast 300ft 995 Temporary: Visibility 0500. freezing Fog . freezing Drizzle . Overcast 200ft. . Runway 19: Wet snow, 1-10% contamination with 5mm, friction coefficient 0.42. UUWW 022100Z 19006MPS 7000 OVC003 M01/M02 Q0995 R19/510542 TEMPO 0500 FZFG FZDZ OVC002
LIFR -1°C / -2°C 190º 12kt 8000m - Overcast 300ft 995 Temporary: Visibility 0500. freezing Fog . freezing Drizzle . Overcast 200ft. . Runway 19: Wet snow, 1-10% contamination with 5mm, friction coefficient 0.42. UUWW 022030Z 19006MPS 8000 OVC003 M01/M02 Q0995 R19/510542 TEMPO 0500 FZFG FZDZ OVC002
LIFR -1°C / -2°C 200º 8kt >10km - Overcast 400ft 995 No Significant change. Runway 24: Wet snow, 11-25% contamination with 5mm, friction coefficient 0.40. UUWW 022000Z 20004MPS 9999 OVC004 M01/M02 Q0995 R24/520540 NOSIG
LIFR -2°C / -3°C 190º 8kt >10km - Overcast 400ft 995 No Significant change. Runway 24: Wet snow, 11-25% contamination with 5mm, friction coefficient 0.40. UUWW 021930Z 19004MPS 9999 OVC004 M02/M03 Q0995 R24/520540 NOSIG
IFR -2°C / -3°C 190º 12kt >10km - Overcast 500ft 995 No Significant change. Runway 19: Slush, 51-100% contamination with 3mm, friction coefficient 0.37. UUWW 021900Z 19006MPS 9999 OVC005 M02/M03 Q0995 R19/690337 NOSIG
IFR -2°C / -3°C 190º 8kt >10km - Overcast 500ft 995 No Significant change. Runway 24: Wet snow, 11-25% contamination with 5mm, friction coefficient 0.40. UUWW 021830Z 19004MPS 9999 OVC005 M02/M03 Q0995 R24/520540 NOSIG
IFR -2°C / -4°C 180º 12kt 9000m Light Snow 1.00mm precipitation Vertical Visibility of 0ft.
Overcast 3000ft
995 No Significant change. Runway 19: Slush, 51-100% contamination with 3mm, friction coefficient 0.37. UUWW 021800Z 18006MPS 9000 -SN BKN006 OVC030 M02/M04 Q0995 R19/690337 NOSIG
IFR -3°C / -4°C 180º 12kt 6000m Light Showers Snow 3.00mm precipitation Vertical Visibility of 0ft.
Broken Clouds 3000ft
995 No Significant change. Runway 19: Slush, 51-100% contamination with 3mm, friction coefficient 0.37. UUWW 021730Z 18006MPS 6000 -SHSN BKN007 BKN030CB M03/M04 Q0995 R19/690337 NOSIG
MVFR -3°C / -4°C 170º 8kt. Wind Shear present on Runway 24. 8000m Light Showers Snow 3.00mm precipitation Vertical Visibility of 0ft. 995 No Significant change. Runway 24: Wet snow, 11-25% contamination with 5mm, friction coefficient 0.40. UUWW 021700Z 17004MPS 8000 -SHSN BKN018CB M03/M04 Q0995 WS R24 R24/520540 NOSIG
MVFR -3°C / -4°C 170º 8kt. Wind Shear present on Runway 24. 4900m Light Showers Snow 3.00mm precipitation Vertical Visibility of 0ft.
Overcast 4000ft
995 No Significant change. Runway 24: Wet snow, 11-25% contamination with 5mm, friction coefficient 0.40. UUWW 021630Z 17004MPS 4900 -SHSN BKN013 OVC040CB M03/M04 Q0995 WS R24 R24/520540 NOSIG
MVFR -3°C / -5°C 180º variable 130º to 230º 10kt 7000m Light Showers Snow 3.00mm precipitation Vertical Visibility of 0ft.
Overcast 4600ft
996 Temporary: Visibility 1500. Showers Snow . Broken Clouds 1500ft. Cumulonimbus . Runway 24: Wet snow, 11-25% contamination with 5mm, friction coefficient 0.40. UUWW 021600Z 18005MPS 130V230 7000 -SHSN BKN011 OVC046CB M03/M05 Q0996 R24/520540 TEMPO 1500 SHSN BKN015CB
IFR -3°C / -5°C 160º 8kt 3800m Light Showers Snow 3.00mm precipitation Vertical Visibility of 0ft.
Overcast 3600ft
995 Temporary: Visibility 1500. Showers Snow . Broken Clouds 1500ft. Cumulonimbus . Runway 24: Wet snow, 11-25% contamination with 5mm, friction coefficient 0.40. UUWW 021530Z 16004MPS 3800 -SHSN BKN010 OVC036CB M03/M05 Q0995 R24/520540 TEMPO 1500 SHSN BKN015CB
IFR -3°C / -5°C 160º 14kt 4600m Light Snow 1.00mm precipitation Vertical Visibility of 0ft. 996 Temporary: Visibility 1500. Showers Snow . Broken Clouds 1500ft. Cumulonimbus . Runway 19: Wet snow, 11-25% contamination with 5mm, friction coefficient 0.40. UUWW 021500Z 16007MPS 4600 -SN OVC012 M03/M05 Q0996 R19/520540 TEMPO 1500 SHSN BKN015CB
IFR -4°C / -5°C 150º 14kt 9000m Light Snow 1.00mm precipitation Vertical Visibility of 0ft. 996 Temporary: Visibility 1500. Showers Snow . Broken Clouds 1500ft. Cumulonimbus . Runway 19: Wet snow, 11-25% contamination with 5mm, friction coefficient 0.40. UUWW 021430Z 15007MPS 9000 -SN OVC008 M04/M05 Q0996 R19/520540 TEMPO 1500 SHSN BKN015CB
IFR -4°C / -5°C 140º 10kt 3000m Light Snow 1.00mm precipitation Vertical Visibility of 0ft. 996 Temporary: Visibility 0700. Heavy Showers Snow . Broken Clouds 1500ft. Cumulonimbus . Runway 19: Wet snow, 11-25% contamination with 5mm, friction coefficient 0.40. UUWW 021400Z 14005MPS 3000 -SN OVC006 M04/M05 Q0996 R19/520540 TEMPO 0700 +SHSN BKN015CB
IFR -4°C / -6°C 140º 8kt 1700m. Runway 24: Visual range is 1700m. Snow 3.00mm precipitation Vertical Visibility of 0ft. 996 Temporary: Visibility 1000. Showers Snow . Broken Clouds 1500ft. Cumulonimbus . Runway 24: Dry snow, 11-25% contamination with 5mm, friction coefficient 0.40. UUWW 021330Z 14004MPS 1700 R24/1700N SN OVC016 M04/M06 Q0996 R24/420540 TEMPO 1000 SHSN BKN015CB
IFR -4°C / -6°C 140º 6kt 2300m Light Snow 1.00mm precipitation Vertical Visibility of 0ft. 997 Temporary: Visibility 1000. Showers Snow . Broken Clouds 1500ft. Cumulonimbus . Runway 24: Dry snow, 11-25% contamination with 5mm, friction coefficient 0.40. UUWW 021300Z 14003MPS 2300 -SN OVC020 M04/M06 Q0997 R24/420540 TEMPO 1000 SHSN BKN015CB
LIFR -4°C / -6°C 150º 8kt 1500m. Runway 24: Visual range is 1500m and increasing. Snow 3.00mm precipitation Vertical Visibility of 0ft. 997 Temporary: Visibility 1000. Showers Snow . Broken Clouds 1500ft. Cumulonimbus . Runway 24: Dry snow, 1-10% contamination with 2mm, friction coefficient 0.50. UUWW 021230Z 15004MPS 1500 1400SW R24/1500U SN OVC021 M04/M06 Q0997 R24/410250 TEMPO 1000 SHSN BKN015CB
IFR -4°C / -7°C 140º 8kt 3900m Light Snow 1.00mm precipitation Vertical Visibility of 0ft. 997 Temporary: Visibility 1000. Showers Snow . Broken Clouds 1500ft. Cumulonimbus . Runway 24: Dry snow, 1-10% contamination with 2mm, friction coefficient 0.50. UUWW 021200Z 14004MPS 3900 -SN OVC019 M04/M07 Q0997 R24/410250 TEMPO 1000 SHSN BKN015CB
MVFR -4°C / -7°C 140º 6kt 6000m Light Snow 1.00mm precipitation Vertical Visibility of 0ft. 997 Temporary: Visibility 1000. Showers Snow . Broken Clouds 1500ft. Cumulonimbus . Runway 24: Dry snow, 1-10% contamination with 2mm, friction coefficient 0.50. UUWW 021130Z 14003MPS 6000 -SN OVC027 M04/M07 Q0997 R24/410250 TEMPO 1000 SHSN BKN015CB
VFR -4°C / -8°C 160º 6kt >10km - Broken Clouds 3900ft 998 No Significant change. Runway 24: Dry snow, 1-10% contamination with 2mm, friction coefficient 0.50. UUWW 021100Z 16003MPS 9999 BKN039 M04/M08 Q0998 R24/410250 NOSIG
VFR -4°C / -8°C 160º 8kt >10km - Clouds and Visibility OK 998 No Significant change. Runway 24: Dry snow, 1-10% contamination with 2mm, friction coefficient 0.50. UUWW 021030Z 16004MPS CAVOK M04/M08 Q0998 R24/410250 NOSIG

LIFR

0°C / -1°C

[Περισσότερο]
Άνεμος 180º 8kt
Ορατότητα 7000m
Καιρός -
Νέφη Overcast 400ft
Πίεση 995
Αλλαγή Temporary: Visibility 1000. Snow . Mist . Overcast 200ft. . Runway 24: Wet snow, 1-10% contamination with 5mm, friction coefficient 0.42.
Ανεπεξέργαστο UUWW 022200Z 18004MPS 7000 OVC004 00/M01 Q0995 R24/510542 TEMPO 1000 SN BR OVC002

LIFR

0°C / -1°C

[Περισσότερο]
Άνεμος 200º 12kt
Ορατότητα 7000m
Καιρός -
Νέφη Overcast 300ft
Πίεση 995
Αλλαγή Temporary: Visibility 0500. freezing Fog . freezing Drizzle . Overcast 200ft. . Runway 19: Wet snow, 1-10% contamination with 5mm, friction coefficient 0.42.
Ανεπεξέργαστο UUWW 022130Z 20006MPS 7000 OVC003 M00/M01 Q0995 R19/510542 TEMPO 0500 FZFG FZDZ OVC002

LIFR

-1°C / -2°C

[Περισσότερο]
Άνεμος 190º 12kt
Ορατότητα 7000m
Καιρός -
Νέφη Overcast 300ft
Πίεση 995
Αλλαγή Temporary: Visibility 0500. freezing Fog . freezing Drizzle . Overcast 200ft. . Runway 19: Wet snow, 1-10% contamination with 5mm, friction coefficient 0.42.
Ανεπεξέργαστο UUWW 022100Z 19006MPS 7000 OVC003 M01/M02 Q0995 R19/510542 TEMPO 0500 FZFG FZDZ OVC002

LIFR

-1°C / -2°C

[Περισσότερο]
Άνεμος 190º 12kt
Ορατότητα 8000m
Καιρός -
Νέφη Overcast 300ft
Πίεση 995
Αλλαγή Temporary: Visibility 0500. freezing Fog . freezing Drizzle . Overcast 200ft. . Runway 19: Wet snow, 1-10% contamination with 5mm, friction coefficient 0.42.
Ανεπεξέργαστο UUWW 022030Z 19006MPS 8000 OVC003 M01/M02 Q0995 R19/510542 TEMPO 0500 FZFG FZDZ OVC002

LIFR

-1°C / -2°C

[Περισσότερο]
Άνεμος 200º 8kt
Ορατότητα >10km
Καιρός -
Νέφη Overcast 400ft
Πίεση 995
Αλλαγή No Significant change. Runway 24: Wet snow, 11-25% contamination with 5mm, friction coefficient 0.40.
Ανεπεξέργαστο UUWW 022000Z 20004MPS 9999 OVC004 M01/M02 Q0995 R24/520540 NOSIG

LIFR

-2°C / -3°C

[Περισσότερο]
Άνεμος 190º 8kt
Ορατότητα >10km
Καιρός -
Νέφη Overcast 400ft
Πίεση 995
Αλλαγή No Significant change. Runway 24: Wet snow, 11-25% contamination with 5mm, friction coefficient 0.40.
Ανεπεξέργαστο UUWW 021930Z 19004MPS 9999 OVC004 M02/M03 Q0995 R24/520540 NOSIG

IFR

-2°C / -3°C

[Περισσότερο]
Άνεμος 190º 12kt
Ορατότητα >10km
Καιρός -
Νέφη Overcast 500ft
Πίεση 995
Αλλαγή No Significant change. Runway 19: Slush, 51-100% contamination with 3mm, friction coefficient 0.37.
Ανεπεξέργαστο UUWW 021900Z 19006MPS 9999 OVC005 M02/M03 Q0995 R19/690337 NOSIG

IFR

-2°C / -3°C

[Περισσότερο]
Άνεμος 190º 8kt
Ορατότητα >10km
Καιρός -
Νέφη Overcast 500ft
Πίεση 995
Αλλαγή No Significant change. Runway 24: Wet snow, 11-25% contamination with 5mm, friction coefficient 0.40.
Ανεπεξέργαστο UUWW 021830Z 19004MPS 9999 OVC005 M02/M03 Q0995 R24/520540 NOSIG

IFR

-2°C / -4°C

[Περισσότερο]
Άνεμος 180º 12kt
Ορατότητα 9000m
Καιρός Light Snow 1.00mm precipitation
Νέφη Vertical Visibility of 0ft.
Overcast 3000ft
Πίεση 995
Αλλαγή No Significant change. Runway 19: Slush, 51-100% contamination with 3mm, friction coefficient 0.37.
Ανεπεξέργαστο UUWW 021800Z 18006MPS 9000 -SN BKN006 OVC030 M02/M04 Q0995 R19/690337 NOSIG

IFR

-3°C / -4°C

[Περισσότερο]
Άνεμος 180º 12kt
Ορατότητα 6000m
Καιρός Light Showers Snow 3.00mm precipitation
Νέφη Vertical Visibility of 0ft.
Broken Clouds 3000ft
Πίεση 995
Αλλαγή No Significant change. Runway 19: Slush, 51-100% contamination with 3mm, friction coefficient 0.37.
Ανεπεξέργαστο UUWW 021730Z 18006MPS 6000 -SHSN BKN007 BKN030CB M03/M04 Q0995 R19/690337 NOSIG

MVFR

-3°C / -4°C

[Περισσότερο]
Άνεμος 170º 8kt. Wind Shear present on Runway 24.
Ορατότητα 8000m
Καιρός Light Showers Snow 3.00mm precipitation
Νέφη Vertical Visibility of 0ft.
Πίεση 995
Αλλαγή No Significant change. Runway 24: Wet snow, 11-25% contamination with 5mm, friction coefficient 0.40.
Ανεπεξέργαστο UUWW 021700Z 17004MPS 8000 -SHSN BKN018CB M03/M04 Q0995 WS R24 R24/520540 NOSIG

MVFR

-3°C / -4°C

[Περισσότερο]
Άνεμος 170º 8kt. Wind Shear present on Runway 24.
Ορατότητα 4900m
Καιρός Light Showers Snow 3.00mm precipitation
Νέφη Vertical Visibility of 0ft.
Overcast 4000ft
Πίεση 995
Αλλαγή No Significant change. Runway 24: Wet snow, 11-25% contamination with 5mm, friction coefficient 0.40.
Ανεπεξέργαστο UUWW 021630Z 17004MPS 4900 -SHSN BKN013 OVC040CB M03/M04 Q0995 WS R24 R24/520540 NOSIG

MVFR

-3°C / -5°C

[Περισσότερο]
Άνεμος 180º variable 130º to 230º 10kt
Ορατότητα 7000m
Καιρός Light Showers Snow 3.00mm precipitation
Νέφη Vertical Visibility of 0ft.
Overcast 4600ft
Πίεση 996
Αλλαγή Temporary: Visibility 1500. Showers Snow . Broken Clouds 1500ft. Cumulonimbus . Runway 24: Wet snow, 11-25% contamination with 5mm, friction coefficient 0.40.
Ανεπεξέργαστο UUWW 021600Z 18005MPS 130V230 7000 -SHSN BKN011 OVC046CB M03/M05 Q0996 R24/520540 TEMPO 1500 SHSN BKN015CB

IFR

-3°C / -5°C

[Περισσότερο]
Άνεμος 160º 8kt
Ορατότητα 3800m
Καιρός Light Showers Snow 3.00mm precipitation
Νέφη Vertical Visibility of 0ft.
Overcast 3600ft
Πίεση 995
Αλλαγή Temporary: Visibility 1500. Showers Snow . Broken Clouds 1500ft. Cumulonimbus . Runway 24: Wet snow, 11-25% contamination with 5mm, friction coefficient 0.40.
Ανεπεξέργαστο UUWW 021530Z 16004MPS 3800 -SHSN BKN010 OVC036CB M03/M05 Q0995 R24/520540 TEMPO 1500 SHSN BKN015CB

IFR

-3°C / -5°C

[Περισσότερο]
Άνεμος 160º 14kt
Ορατότητα 4600m
Καιρός Light Snow 1.00mm precipitation
Νέφη Vertical Visibility of 0ft.
Πίεση 996
Αλλαγή Temporary: Visibility 1500. Showers Snow . Broken Clouds 1500ft. Cumulonimbus . Runway 19: Wet snow, 11-25% contamination with 5mm, friction coefficient 0.40.
Ανεπεξέργαστο UUWW 021500Z 16007MPS 4600 -SN OVC012 M03/M05 Q0996 R19/520540 TEMPO 1500 SHSN BKN015CB

IFR

-4°C / -5°C

[Περισσότερο]
Άνεμος 150º 14kt
Ορατότητα 9000m
Καιρός Light Snow 1.00mm precipitation
Νέφη Vertical Visibility of 0ft.
Πίεση 996
Αλλαγή Temporary: Visibility 1500. Showers Snow . Broken Clouds 1500ft. Cumulonimbus . Runway 19: Wet snow, 11-25% contamination with 5mm, friction coefficient 0.40.
Ανεπεξέργαστο UUWW 021430Z 15007MPS 9000 -SN OVC008 M04/M05 Q0996 R19/520540 TEMPO 1500 SHSN BKN015CB

IFR

-4°C / -5°C

[Περισσότερο]
Άνεμος 140º 10kt
Ορατότητα 3000m
Καιρός Light Snow 1.00mm precipitation
Νέφη Vertical Visibility of 0ft.
Πίεση 996
Αλλαγή Temporary: Visibility 0700. Heavy Showers Snow . Broken Clouds 1500ft. Cumulonimbus . Runway 19: Wet snow, 11-25% contamination with 5mm, friction coefficient 0.40.
Ανεπεξέργαστο UUWW 021400Z 14005MPS 3000 -SN OVC006 M04/M05 Q0996 R19/520540 TEMPO 0700 +SHSN BKN015CB

IFR

-4°C / -6°C

[Περισσότερο]
Άνεμος 140º 8kt
Ορατότητα 1700m. Runway 24: Visual range is 1700m.
Καιρός Snow 3.00mm precipitation
Νέφη Vertical Visibility of 0ft.
Πίεση 996
Αλλαγή Temporary: Visibility 1000. Showers Snow . Broken Clouds 1500ft. Cumulonimbus . Runway 24: Dry snow, 11-25% contamination with 5mm, friction coefficient 0.40.
Ανεπεξέργαστο UUWW 021330Z 14004MPS 1700 R24/1700N SN OVC016 M04/M06 Q0996 R24/420540 TEMPO 1000 SHSN BKN015CB

IFR

-4°C / -6°C

[Περισσότερο]
Άνεμος 140º 6kt
Ορατότητα 2300m
Καιρός Light Snow 1.00mm precipitation
Νέφη Vertical Visibility of 0ft.
Πίεση 997
Αλλαγή Temporary: Visibility 1000. Showers Snow . Broken Clouds 1500ft. Cumulonimbus . Runway 24: Dry snow, 11-25% contamination with 5mm, friction coefficient 0.40.
Ανεπεξέργαστο UUWW 021300Z 14003MPS 2300 -SN OVC020 M04/M06 Q0997 R24/420540 TEMPO 1000 SHSN BKN015CB

LIFR

-4°C / -6°C

[Περισσότερο]
Άνεμος 150º 8kt
Ορατότητα 1500m. Runway 24: Visual range is 1500m and increasing.
Καιρός Snow 3.00mm precipitation
Νέφη Vertical Visibility of 0ft.
Πίεση 997
Αλλαγή Temporary: Visibility 1000. Showers Snow . Broken Clouds 1500ft. Cumulonimbus . Runway 24: Dry snow, 1-10% contamination with 2mm, friction coefficient 0.50.
Ανεπεξέργαστο UUWW 021230Z 15004MPS 1500 1400SW R24/1500U SN OVC021 M04/M06 Q0997 R24/410250 TEMPO 1000 SHSN BKN015CB

IFR

-4°C / -7°C

[Περισσότερο]
Άνεμος 140º 8kt
Ορατότητα 3900m
Καιρός Light Snow 1.00mm precipitation
Νέφη Vertical Visibility of 0ft.
Πίεση 997
Αλλαγή Temporary: Visibility 1000. Showers Snow . Broken Clouds 1500ft. Cumulonimbus . Runway 24: Dry snow, 1-10% contamination with 2mm, friction coefficient 0.50.
Ανεπεξέργαστο UUWW 021200Z 14004MPS 3900 -SN OVC019 M04/M07 Q0997 R24/410250 TEMPO 1000 SHSN BKN015CB

MVFR

-4°C / -7°C

[Περισσότερο]
Άνεμος 140º 6kt
Ορατότητα 6000m
Καιρός Light Snow 1.00mm precipitation
Νέφη Vertical Visibility of 0ft.
Πίεση 997
Αλλαγή Temporary: Visibility 1000. Showers Snow . Broken Clouds 1500ft. Cumulonimbus . Runway 24: Dry snow, 1-10% contamination with 2mm, friction coefficient 0.50.
Ανεπεξέργαστο UUWW 021130Z 14003MPS 6000 -SN OVC027 M04/M07 Q0997 R24/410250 TEMPO 1000 SHSN BKN015CB

VFR

-4°C / -8°C

[Περισσότερο]
Άνεμος 160º 6kt
Ορατότητα >10km
Καιρός -
Νέφη Broken Clouds 3900ft
Πίεση 998
Αλλαγή No Significant change. Runway 24: Dry snow, 1-10% contamination with 2mm, friction coefficient 0.50.
Ανεπεξέργαστο UUWW 021100Z 16003MPS 9999 BKN039 M04/M08 Q0998 R24/410250 NOSIG

VFR

-4°C / -8°C

[Περισσότερο]
Άνεμος 160º 8kt
Ορατότητα >10km
Καιρός -
Νέφη Clouds and Visibility OK
Πίεση 998
Αλλαγή No Significant change. Runway 24: Dry snow, 1-10% contamination with 2mm, friction coefficient 0.50.
Ανεπεξέργαστο UUWW 021030Z 16004MPS CAVOK M04/M08 Q0998 R24/410250 NOSIG

TAF για 55.6°Β 37.27°Α (UUWW)

From till


Maximum Temperature 0ºC on . Minimum Temperature -2ºC on .
From till Wind 220º 12kt. Gust 21kt. Visibility 5000m. Light Snow Mist . Overcast 300ft.
Temporarly from till Visibility 498.895m. Light freezing Drizzle freezing Fog . Overcast 100ft.
Temporarly from till Wind 160º 10kt. Visibility 997.791m. Snow Mist . Overcast 100ft.
Becoming from till Wind 220º 12kt. Gust 21kt. Visibility 5000m. Light Snow Mist . Overcast 500ft.
From till Wind 160º 10kt. Visibility 2900m. Light Snow Mist . Overcast 600ft.
Temporarly from till Visibility 997.791m. Showers Snow Mist . Broken Clouds 300ft. Scattered Clouds 2500ft.
Becoming from till Wind 230º 12kt. Gust 25kt. Visibility 2900m. Light Snow Mist . Overcast 600ft.

Ανεπεξέργαστο: TAF AMD UUWW 022034Z 0221/0321 22006G11MPS 5000 -SN BR OVC003 TX00/0312Z TNM02/0221Z TEMPO 0221/0302 0500 -FZDZ FZFG OVC001 TEMPO 0302/0308 16005MPS 1000 SN BR OVC001 BECMG 0308/0310 OVC005 FM031200 16005MPS 2900 -SN BR OVC006 TEMPO 0312/0321 1000 SHSN BR BKN003 SCT025CB BECMG 0314/0317 23006G13MPS

Ραντάρ και πρόγνωση υετού μικρής δειάρκειας για 55.6°Β 37.27°Α

Ψιλοβρέχει
Φως
Μέτρια
Βαριά
Πολύ βαρύ
Χαλάζι

Ο δείκτης θέσης τοποθετείται στο 55.6°Β 37.27°Α. Αυτή η κινούμενη εικόνα δείχνει την ραντάρ βροχόπτωσης για την τελευταία ώρα, καθώς και 1πρόγνωση h. Το ψιλόβροχο ή το ελαφρύ χιόνι μπορεί να είναι αόρατο για το ραντάρ. Η ένταση της βροχόπτωσης είναι χρωματικά κωδικοποιημένη και κυμαίνεται από γαλάζιο έως πορτοκαλί.

Τρέχουσες εικόνες δορυφόρου και βροχής για 55.6°Β 37.27°Α

Η ένδειξη τοποθεσίας τοποθετείται στο 55.6°Β 37.27°Α. [Περισσότερο]

Οι δορυφορικές εικόνες σε πραγματικό χρόνο συνδυάζουν ορατό φως κατά τη διάρκεια της ημέρας με υπέρυθρη ακτινοβολία κατά τη διάρκεια της νύχτας. Κατά τη διάρκεια της νύχτας, η εικόνα δεν είναι σκοτεινή μιας και η υπέρυθρη ακτινοβολία μπορεί να εντοπίσει τις διαφορές στη θερμοκρασία. Δυστυχώς, είναι δύσκολο να ξεχωρίσουν οι χαμηλές νεφώσεις και η ομίχλη από τις θερμοκρασίες εδάφους και έτσι μπορεί να είναι σχετικά αόρατα κατά τη διάρκεια της νύχτας. Οι εικόνες από τον δορυφόρο Meteosat για την Ευρώπη ενημερώνονται σε πραγματικό χρόνο κάθε 5 λεπτά. Οι εικόνες από τους δορυφόρους GOES-16/GOES-17 (Βόρεια & Λατινική Αμερική) και Himawari (Ασία) ενημερώνονται κάθε 10 λεπτά.

Πνευματική ιδιοκτησία 2021 EUMETSAT / meteoblue. / Πνευματική ιδιοκτησία 2021 meteoblue